Time;durP1;ratioP1;P1;durP2;ratioP2;P2;SDS_P1;SDS_P2;PMS_P1;PMS_P2;Temp;Humidity;BMP_temperature;BMP_pressure;BME280_temperature;BME280_humidity;BME280_pressure;Samples;Min_cycle;Max_cycle;Signal;HPM_P1;HPM_P2
2023/09/24 00:00:20;;;;;;;0.60;0.60;;;12.20;99.90;;;;;;5093375;28;20454;-83
2023/09/24 00:02:47;;;;;;;0.57;0.40;;;12.20;99.90;;;;;;5093630;28;20519;-83
2023/09/24 00:05:14;;;;;;;2.10;0.60;;;12.20;99.90;;;;;;5093825;28;20440;-82
2023/09/24 00:07:42;;;;;;;0.53;0.50;;;12.20;99.90;;;;;;5093635;28;20510;-82
2023/09/24 00:10:10;;;;;;;0.70;0.70;;;12.20;99.90;;;;;;5093531;28;20444;-83
2023/09/24 00:12:37;;;;;;;0.43;0.43;;;12.10;99.90;;;;;;5093177;28;20860;-83
2023/09/24 00:15:05;;;;;;;0.50;0.50;;;12.10;99.90;;;;;;5093238;28;20448;-83
2023/09/24 00:17:31;;;;;;;0.60;0.60;;;12.10;99.90;;;;;;5093506;28;20444;-83
2023/09/24 00:19:58;;;;;;;0.40;0.40;;;12.10;99.90;;;;;;5093927;28;20768;-83
2023/09/24 00:22:25;;;;;;;0.50;0.40;;;12.10;99.90;;;;;;5093303;28;20479;-83
2023/09/24 00:24:53;;;;;;;0.57;0.57;;;12.20;99.90;;;;;;5093399;28;20444;-82
2023/09/24 00:27:20;;;;;;;0.70;0.50;;;12.20;99.90;;;;;;5093344;28;20451;-83
2023/09/24 00:29:47;;;;;;;1.13;0.50;;;12.10;99.90;;;;;;5093074;28;20448;-83
2023/09/24 00:32:14;;;;;;;0.63;0.63;;;12.00;99.90;;;;;;5092982;28;20479;-82
2023/09/24 00:34:41;;;;;;;0.93;0.60;;;12.00;99.90;;;;;;5093263;28;20440;-82
2023/09/24 00:37:08;;;;;;;0.50;0.50;;;13.10;99.90;;;;;;5093019;28;20932;-82
2023/09/24 00:39:35;;;;;;;1.17;0.80;;;12.00;99.90;;;;;;5094158;28;20975;-83
2023/09/24 00:42:05;;;;;;;1.23;0.63;;;11.90;99.90;;;;;;5096904;28;20484;-83
2023/09/24 00:44:32;;;;;;;1.17;1.07;;;11.80;99.90;;;;;;5097447;28;20468;-83
2023/09/24 00:46:59;;;;;;;2.33;0.70;;;11.90;99.90;;;;;;5097324;28;20443;-82
2023/09/24 00:49:29;;;;;;;1.13;0.93;;;11.90;99.90;;;;;;5097279;28;20444;-82
2023/09/24 00:51:55;;;;;;;0.60;0.60;;;11.90;99.90;;;;;;5097212;28;20600;-82
2023/09/24 00:54:23;;;;;;;4.93;0.57;;;11.90;99.90;;;;;;5097168;28;20440;-82
2023/09/24 00:56:50;;;;;;;0.60;0.60;;;11.80;99.90;;;;;;5097128;28;20452;-83
2023/09/24 00:59:19;;;;;;;0.80;0.40;;;11.80;99.90;;;;;;5097162;28;20447;-82
2023/09/24 01:01:46;;;;;;;1.20;0.40;;;11.80;99.90;;;;;;5096691;28;21013;-82
2023/09/24 01:04:14;;;;;;;2.47;0.63;;;11.80;99.90;;;;;;5096887;28;20471;-82
2023/09/24 01:06:40;;;;;;;1.67;0.90;;;11.80;99.90;;;;;;5097004;28;20456;-82
2023/09/24 01:09:09;;;;;;;0.90;0.50;;;11.70;99.90;;;;;;5096912;28;20444;-83
2023/09/24 01:11:38;;;;;;;1.00;0.70;;;11.70;99.90;;;;;;5096806;28;20841;-82
2023/09/24 01:14:05;;;;;;;1.03;0.57;;;11.80;99.90;;;;;;5096546;28;20543;-82
2023/09/24 01:16:33;;;;;;;0.63;0.50;;;11.70;99.90;;;;;;5096461;28;20444;-82
2023/09/24 01:19:00;;;;;;;0.60;0.60;;;11.70;99.90;;;;;;5096673;28;20447;-82
2023/09/24 01:21:28;;;;;;;0.60;0.50;;;11.70;99.90;;;;;;5096602;28;20460;-82
2023/09/24 01:24:00;;;;;;;0.60;0.60;;;11.60;99.90;;;;;;5096312;28;20852;-82
2023/09/24 01:26:27;;;;;;;1.13;0.80;;;11.70;99.90;;;;;;5096609;28;20428;-82
2023/09/24 01:28:54;;;;;;;7.13;0.87;;;11.60;99.90;;;;;;5096868;28;20847;-82
2023/09/24 01:31:21;;;;;;;0.40;0.40;;;11.60;99.90;;;;;;5096483;28;20522;-82
2023/09/24 01:33:48;;;;;;;0.93;0.63;;;11.60;99.90;;;;;;5096690;28;20447;-83
2023/09/24 01:36:15;;;;;;;2.30;0.60;;;11.50;99.90;;;;;;5096437;28;20447;-82
2023/09/24 01:38:43;;;;;;;0.40;0.40;;;11.50;99.90;;;;;;5096310;28;20454;-82
2023/09/24 01:41:12;;;;;;;1.67;0.80;;;11.40;99.90;;;;;;5095742;28;21003;-82
2023/09/24 01:43:42;;;;;;;0.70;0.70;;;11.30;99.90;;;;;;5095904;28;20835;-83
2023/09/24 01:46:09;;;;;;;0.80;0.80;;;11.30;99.90;;;;;;5096260;28;20520;-82
2023/09/24 01:48:36;;;;;;;0.40;0.40;;;11.30;99.90;;;;;;5096441;28;20450;-82
2023/09/24 01:51:07;;;;;;;0.70;0.70;;;11.30;99.90;;;;;;5095854;28;20448;-82
2023/09/24 01:53:35;;;;;;;1.07;0.80;;;11.30;99.90;;;;;;5096123;28;20424;-82
2023/09/24 01:56:04;;;;;;;2.10;0.67;;;11.30;99.90;;;;;;5095742;28;20448;-82
2023/09/24 01:58:32;;;;;;;1.20;0.70;;;11.30;99.90;;;;;;5096027;28;20444;-82
2023/09/24 02:00:59;;;;;;;0.60;0.57;;;11.30;99.90;;;;;;5095702;28;20516;-82
2023/09/24 02:03:26;;;;;;;1.10;0.80;;;11.20;99.90;;;;;;5095683;28;20515;-82
2023/09/24 02:05:53;;;;;;;1.07;0.63;;;11.20;99.90;;;;;;5095852;28;20817;-82
2023/09/24 02:08:20;;;;;;;1.07;0.60;;;11.20;99.90;;;;;;5095459;28;20440;-82
2023/09/24 02:10:47;;;;;;;0.93;0.60;;;11.20;99.90;;;;;;5095974;28;20440;-82
2023/09/24 02:13:14;;;;;;;0.60;0.60;;;11.20;99.90;;;;;;5095590;28;20471;-82
2023/09/24 02:15:44;;;;;;;0.50;0.50;;;11.00;99.90;;;;;;5095649;28;20439;-82
2023/09/24 02:18:11;;;;;;;0.50;0.50;;;11.00;99.90;;;;;;5095296;28;20448;-82
2023/09/24 02:20:42;;;;;;;0.70;0.70;;;11.20;99.90;;;;;;5095292;28;20450;-82
2023/09/24 02:23:10;;;;;;;0.93;0.70;;;11.00;99.90;;;;;;5095445;28;20484;-82
2023/09/24 02:25:37;;;;;;;1.10;0.63;;;11.00;99.90;;;;;;5095181;28;20952;-82
2023/09/24 02:28:05;;;;;;;0.50;0.50;;;11.00;99.90;;;;;;5095173;28;20428;-82
2023/09/24 02:30:32;;;;;;;3.40;1.20;;;11.00;99.90;;;;;;5095104;28;20924;-82
2023/09/24 02:33:02;;;;;;;2.50;1.07;;;11.00;99.90;;;;;;5094953;28;20980;-82
2023/09/24 02:35:29;;;;;;;0.60;0.60;;;11.00;99.90;;;;;;5095311;28;20443;-82
2023/09/24 02:37:56;;;;;;;1.13;0.70;;;11.00;99.90;;;;;;5095249;28;20452;-82
2023/09/24 02:40:26;;;;;;;0.73;0.67;;;11.00;99.90;;;;;;5095595;28;20861;-82
2023/09/24 02:42:55;;;;;;;0.60;0.60;;;11.00;99.90;;;;;;5094788;28;20548;-81
2023/09/24 02:45:22;;;;;;;1.10;1.00;;;10.90;99.90;;;;;;5095303;28;20457;-82
2023/09/24 02:47:50;;;;;;;0.77;0.77;;;11.00;99.90;;;;;;5095085;28;20429;-82
2023/09/24 02:50:22;;;;;;;1.20;0.80;;;11.00;99.90;;;;;;5094973;28;20440;-82
2023/09/24 02:52:49;;;;;;;1.13;0.70;;;11.00;99.90;;;;;;5094770;28;20475;-82
2023/09/24 02:55:16;;;;;;;1.03;0.93;;;10.90;99.90;;;;;;5094857;28;20440;-82
2023/09/24 02:57:44;;;;;;;0.63;0.60;;;10.80;99.90;;;;;;5094499;28;21024;-82
2023/09/24 03:00:17;;;;;;;1.00;0.60;;;10.80;99.90;;;;;;5094775;28;20448;-82
2023/09/24 03:02:44;;;;;;;0.70;0.50;;;10.80;99.90;;;;;;5094148;28;20491;-82
2023/09/24 03:05:12;;;;;;;1.20;0.80;;;10.80;99.90;;;;;;5094587;28;20515;-82
2023/09/24 03:07:42;;;;;;;2.40;0.97;;;10.80;99.90;;;;;;5094723;28;20471;-82
2023/09/24 03:10:10;;;;;;;1.33;0.60;;;10.80;99.90;;;;;;5094666;28;20433;-82
2023/09/24 03:12:37;;;;;;;0.60;0.60;;;10.70;99.90;;;;;;5094363;28;20475;-82
2023/09/24 03:15:06;;;;;;;0.97;0.60;;;10.70;99.90;;;;;;5094486;28;20807;-82
2023/09/24 03:17:33;;;;;;;1.13;0.80;;;10.70;99.90;;;;;;5094131;28;20447;-82
2023/09/24 03:20:11;;;;;;;0.63;0.60;;;10.70;99.90;;;;;;5094100;28;20450;-82
2023/09/24 03:22:38;;;;;;;1.13;0.70;;;10.70;99.90;;;;;;5094591;28;20538;-82
2023/09/24 03:25:08;;;;;;;1.60;0.60;;;10.70;99.90;;;;;;5094206;28;20479;-82
2023/09/24 03:27:35;;;;;;;2.70;0.90;;;10.70;99.90;;;;;;5094300;28;20436;-82
2023/09/24 03:30:02;;;;;;;0.50;0.50;;;10.70;99.90;;;;;;5094217;28;20459;-82
2023/09/24 03:32:31;;;;;;;2.63;0.70;;;10.60;99.90;;;;;;5094128;28;20471;-82
2023/09/24 03:34:59;;;;;;;0.60;0.60;;;10.60;99.90;;;;;;5094035;28;20978;-82
2023/09/24 03:37:26;;;;;;;0.60;0.60;;;10.50;99.90;;;;;;5094113;28;20445;-82
2023/09/24 03:39:53;;;;;;;0.80;0.50;;;10.50;99.90;;;;;;5093958;28;20448;-82
2023/09/24 03:42:21;;;;;;;0.60;0.60;;;10.50;99.90;;;;;;5093511;28;20480;-82
2023/09/24 03:44:48;;;;;;;0.60;0.60;;;10.50;99.90;;;;;;5093584;28;20991;-82
2023/09/24 03:47:16;;;;;;;1.00;0.80;;;10.50;99.90;;;;;;5093898;28;20440;-82
2023/09/24 03:49:43;;;;;;;0.50;0.50;;;10.50;99.90;;;;;;5094629;28;20478;-82
2023/09/24 03:52:10;;;;;;;0.70;0.70;;;10.50;99.90;;;;;;5093404;28;20979;-82
2023/09/24 03:54:38;;;;;;;1.87;1.00;;;10.50;99.90;;;;;;5093475;28;20440;-82
2023/09/24 03:57:05;;;;;;;0.60;0.60;;;10.40;99.90;;;;;;5093786;28;20891;-82
2023/09/24 03:59:36;;;;;;;0.70;0.50;;;10.40;99.90;;;;;;5093442;28;20945;-82
2023/09/24 04:02:06;;;;;;;2.13;0.73;;;10.40;99.90;;;;;;5093646;28;20475;-82
2023/09/24 04:04:33;;;;;;;0.60;0.53;;;10.40;99.90;;;;;;5093331;28;20570;-82
2023/09/24 04:07:01;;;;;;;0.90;0.67;;;10.40;99.90;;;;;;5093678;28;20448;-82
2023/09/24 04:09:31;;;;;;;0.80;0.80;;;10.40;99.90;;;;;;5093839;28;20444;-82
2023/09/24 04:11:57;;;;;;;0.57;0.50;;;10.30;99.90;;;;;;5094170;28;20471;-82
2023/09/24 04:14:24;;;;;;;1.03;0.70;;;10.40;99.90;;;;;;5092564;28;20447;-82
2023/09/24 04:16:53;;;;;;;0.80;0.60;;;10.40;99.90;;;;;;5093463;28;20865;-82
2023/09/24 04:19:19;;;;;;;0.77;0.70;;;10.40;99.90;;;;;;5093438;28;20439;-82
2023/09/24 04:21:46;;;;;;;2.00;0.70;;;10.30;99.90;;;;;;5093378;28;20464;-82
2023/09/24 04:24:13;;;;;;;0.40;0.40;;;10.30;99.90;;;;;;5093380;28;20476;-82
2023/09/24 04:26:40;;;;;;;1.40;0.80;;;10.40;99.90;;;;;;5093462;28;20497;-81
2023/09/24 04:29:08;;;;;;;0.50;0.50;;;10.30;99.90;;;;;;5093419;28;20482;-82
2023/09/24 04:31:35;;;;;;;0.70;0.60;;;10.30;99.90;;;;;;5093397;28;20499;-82
2023/09/24 04:34:03;;;;;;;0.50;0.43;;;10.30;99.90;;;;;;5093418;28;20449;-82
2023/09/24 04:36:30;;;;;;;4.13;0.90;;;10.30;99.90;;;;;;5093318;28;20440;-82
2023/09/24 04:38:57;;;;;;;0.63;0.60;;;10.20;99.90;;;;;;5093301;28;20462;-82
2023/09/24 04:41:24;;;;;;;0.67;0.53;;;10.20;99.90;;;;;;5092914;28;20842;-82
2023/09/24 04:43:52;;;;;;;0.60;0.50;;;10.20;99.90;;;;;;5093186;28;20574;-82
2023/09/24 04:46:19;;;;;;;0.80;0.70;;;10.10;99.90;;;;;;5092884;28;20916;-82
2023/09/24 04:48:45;;;;;;;0.93;0.93;;;10.10;99.90;;;;;;5092907;28;20826;-82
2023/09/24 04:51:13;;;;;;;0.50;0.50;;;10.10;99.90;;;;;;5093108;28;20459;-82
2023/09/24 04:53:40;;;;;;;1.03;0.93;;;10.10;99.90;;;;;;5092894;28;20439;-82
2023/09/24 04:56:07;;;;;;;0.60;0.60;;;10.20;99.90;;;;;;5093296;28;20447;-82
2023/09/24 04:58:35;;;;;;;0.70;0.70;;;10.10;99.90;;;;;;5093143;28;20531;-81
2023/09/24 05:01:06;;;;;;;0.60;0.60;;;10.00;99.90;;;;;;5092792;28;20501;-82
2023/09/24 05:03:32;;;;;;;1.23;0.60;;;10.20;99.90;;;;;;5093071;28;20440;-82
2023/09/24 05:05:59;;;;;;;0.83;0.70;;;10.00;99.90;;;;;;5092816;28;20428;-82
2023/09/24 05:08:28;;;;;;;0.77;0.70;;;10.00;99.90;;;;;;5092998;28;20447;-82
2023/09/24 05:10:55;;;;;;;8.40;1.07;;;10.00;99.90;;;;;;5093001;28;20440;-82
2023/09/24 05:13:21;;;;;;;0.60;0.60;;;10.00;99.90;;;;;;5092912;28;20456;-82
2023/09/24 05:15:53;;;;;;;0.97;0.90;;;9.90;99.90;;;;;;5092899;28;20451;-82
2023/09/24 05:18:20;;;;;;;0.47;0.47;;;9.90;99.90;;;;;;5092881;28;20452;-82
2023/09/24 05:20:47;;;;;;;1.03;0.80;;;9.80;99.90;;;;;;5092780;28;21124;-81
2023/09/24 05:23:14;;;;;;;0.80;0.70;;;9.80;99.90;;;;;;5092713;28;20467;-81
2023/09/24 05:25:42;;;;;;;1.17;0.70;;;9.80;99.90;;;;;;5093446;28;21034;-81
2023/09/24 05:28:08;;;;;;;0.80;0.80;;;9.80;99.90;;;;;;5096270;28;20448;-82
2023/09/24 05:30:35;;;;;;;4.00;1.00;;;9.80;99.90;;;;;;5096510;28;20459;-82
2023/09/24 05:33:03;;;;;;;1.00;0.90;;;9.90;99.90;;;;;;5096398;28;20537;-82
2023/09/24 05:35:30;;;;;;;0.60;0.60;;;9.80;99.90;;;;;;5096158;28;20999;-82
2023/09/24 05:37:57;;;;;;;0.50;0.50;;;9.80;99.90;;;;;;5096686;28;20447;-82
2023/09/24 05:40:23;;;;;;;0.50;0.50;;;9.80;99.90;;;;;;5096354;28;20444;-82
2023/09/24 05:42:51;;;;;;;1.50;1.00;;;9.80;99.90;;;;;;5095791;28;20479;-82
2023/09/24 05:45:19;;;;;;;0.70;0.60;;;9.80;99.90;;;;;;5096166;28;20487;-82
2023/09/24 05:47:46;;;;;;;0.67;0.60;;;9.90;99.90;;;;;;5096307;28;20428;-82
2023/09/24 05:50:13;;;;;;;0.70;0.70;;;9.90;99.90;;;;;;5096270;28;20451;-82
2023/09/24 05:52:40;;;;;;;0.73;0.73;;;9.90;99.90;;;;;;5096301;28;20467;-81
2023/09/24 05:55:07;;;;;;;0.90;0.80;;;10.00;99.90;;;;;;5096068;28;20481;-81
2023/09/24 05:57:34;;;;;;;0.80;0.80;;;10.00;99.90;;;;;;5095777;28;20455;-81
2023/09/24 06:00:04;;;;;;;0.73;0.73;;;10.00;99.90;;;;;;5096258;28;20447;-82
2023/09/24 06:02:31;;;;;;;1.37;0.80;;;10.00;99.90;;;;;;5095889;28;20475;-82
2023/09/24 06:04:58;;;;;;;0.70;0.60;;;10.10;99.90;;;;;;5096601;28;20480;-82
2023/09/24 06:07:28;;;;;;;0.50;0.50;;;10.10;99.90;;;;;;5095903;28;20514;-82
2023/09/24 06:09:55;;;;;;;0.53;0.50;;;10.20;99.90;;;;;;5095727;28;20944;-82
2023/09/24 06:12:24;;;;;;;1.43;0.87;;;10.40;99.90;;;;;;5095355;28;21003;-82
2023/09/24 06:14:50;;;;;;;0.77;0.77;;;10.60;99.90;;;;;;5095776;28;20451;-82
2023/09/24 06:17:18;;;;;;;1.40;0.73;;;10.80;99.90;;;;;;5095676;28;20455;-82
2023/09/24 06:19:45;;;;;;;0.70;0.70;;;11.90;99.90;;;;;;5095614;28;20454;-82
2023/09/24 06:22:12;;;;;;;1.10;0.77;;;11.10;99.90;;;;;;5095521;28;20471;-82
2023/09/24 06:24:39;;;;;;;0.70;0.70;;;11.00;99.90;;;;;;5095661;28;20480;-82
2023/09/24 06:27:05;;;;;;;1.37;0.57;;;11.00;99.90;;;;;;5095167;28;21005;-82
2023/09/24 06:29:35;;;;;;;0.80;0.50;;;10.90;99.90;;;;;;5095461;28;20448;-82
2023/09/24 06:32:01;;;;;;;0.60;0.50;;;10.90;99.90;;;;;;5095495;28;20460;-83
2023/09/24 06:34:31;;;;;;;0.97;0.70;;;10.90;99.90;;;;;;5095023;28;20436;-83
2023/09/24 06:36:58;;;;;;;1.17;0.70;;;10.90;99.90;;;;;;5094090;28;20456;-83
2023/09/24 06:39:25;;;;;;;0.80;0.73;;;10.90;99.90;;;;;;5095149;28;20444;-83
2023/09/24 06:41:52;;;;;;;1.93;0.60;;;10.90;99.90;;;;;;5095001;28;20483;-83
2023/09/24 06:44:22;;;;;;;1.47;0.70;;;11.30;99.90;;;;;;5095193;28;20810;-83
2023/09/24 06:46:49;;;;;;;1.07;0.50;;;10.90;99.90;;;;;;5094805;28;20498;-83
2023/09/24 06:49:15;;;;;;;2.57;0.63;;;10.90;99.90;;;;;;5094775;28;20432;-84
2023/09/24 06:51:44;;;;;;;0.53;0.53;;;11.00;99.90;;;;;;5094964;28;20464;-83
2023/09/24 06:54:10;;;;;;;1.37;1.27;;;12.30;99.90;;;;;;5095074;28;20452;-83
2023/09/24 06:56:37;;;;;;;14.30;1.17;;;11.00;99.90;;;;;;5094880;28;20451;-83
2023/09/24 06:59:09;;;;;;;0.57;0.57;;;11.00;99.90;;;;;;5094861;28;20932;-83
2023/09/24 07:01:36;;;;;;;1.97;0.80;;;11.10;99.90;;;;;;5094858;28;20464;-83
2023/09/24 07:04:03;;;;;;;0.63;0.57;;;11.10;99.90;;;;;;5094425;28;20940;-83
2023/09/24 07:06:29;;;;;;;1.60;0.87;;;11.20;99.90;;;;;;5094323;28;20987;-83
2023/09/24 07:08:58;;;;;;;1.10;0.70;;;11.20;99.90;;;;;;5094660;28;20451;-83
2023/09/24 07:11:27;;;;;;;0.67;0.67;;;11.30;99.90;;;;;;5094709;28;20554;-83
2023/09/24 07:13:54;;;;;;;0.87;0.87;;;11.30;99.90;;;;;;5094321;28;20448;-83
2023/09/24 07:16:23;;;;;;;0.70;0.70;;;11.40;99.90;;;;;;5094157;28;20443;-84
2023/09/24 07:18:51;;;;;;;0.60;0.60;;;11.50;99.90;;;;;;5094460;28;20502;-83
2023/09/24 07:21:18;;;;;;;0.70;0.70;;;11.60;99.90;;;;;;5094335;28;20501;-83
2023/09/24 07:23:47;;;;;;;2.90;2.70;;;12.00;99.90;;;;;;5094377;28;20439;-83
2023/09/24 07:26:15;;;;;;;0.60;0.60;;;11.70;99.90;;;;;;5094294;28;20487;-83
2023/09/24 07:28:42;;;;;;;1.07;0.70;;;11.80;99.90;;;;;;5093929;28;20455;-83
2023/09/24 07:31:17;;;;;;;0.97;0.70;;;11.90;99.90;;;;;;5094174;28;20458;-83
2023/09/24 07:33:44;;;;;;;1.70;1.30;;;12.10;99.90;;;;;;5094218;28;20432;-83
2023/09/24 07:36:11;;;;;;;1.57;0.80;;;12.00;99.90;;;;;;5093829;28;20448;-83
2023/09/24 07:38:39;;;;;;;0.87;0.77;;;12.20;99.90;;;;;;5094096;28;20447;-83
2023/09/24 07:41:07;;;;;;;0.70;0.70;;;12.30;99.90;;;;;;5093504;28;20531;-83
2023/09/24 07:43:35;;;;;;;1.17;0.90;;;12.50;99.90;;;;;;5093829;28;20846;-83
2023/09/24 07:46:02;;;;;;;0.70;0.60;;;12.70;99.90;;;;;;5093855;28;20479;-83
2023/09/24 07:48:29;;;;;;;4.03;1.07;;;12.70;99.90;;;;;;5093928;28;20448;-83
2023/09/24 07:50:56;;;;;;;1.23;0.90;;;12.80;99.90;;;;;;5093943;28;20424;-83
2023/09/24 07:53:24;;;;;;;0.63;0.63;;;12.90;99.90;;;;;;5093566;28;20472;-83
2023/09/24 07:55:57;;;;;;;0.80;0.80;;;13.00;99.90;;;;;;5093584;28;20960;-83
2023/09/24 07:58:24;;;;;;;3.90;0.80;;;13.20;99.90;;;;;;5093764;28;20452;-83
2023/09/24 08:00:52;;;;;;;1.77;0.50;;;13.40;99.90;;;;;;5094108;28;20502;-83
2023/09/24 08:03:19;;;;;;;0.40;0.40;;;13.50;99.90;;;;;;5093402;28;20979;-84
2023/09/24 08:05:46;;;;;;;0.50;0.40;;;13.70;99.90;;;;;;5093778;28;20475;-83
2023/09/24 08:08:13;;;;;;;0.80;0.73;;;13.80;99.90;;;;;;5093670;28;20440;-84
2023/09/24 08:10:40;;;;;;;0.90;0.50;;;13.90;99.90;;;;;;5093593;28;20451;-84
2023/09/24 08:13:06;;;;;;;5.00;0.60;;;14.10;99.90;;;;;;5093672;28;20464;-84
2023/09/24 08:15:33;;;;;;;0.70;0.53;;;14.50;99.90;;;;;;5093665;28;20417;-84
2023/09/24 08:18:02;;;;;;;3.47;0.63;;;14.50;99.90;;;;;;5093304;28;20944;-84
2023/09/24 08:20:28;;;;;;;0.80;0.60;;;14.60;99.90;;;;;;5093770;28;20456;-85
2023/09/24 08:22:55;;;;;;;0.67;0.67;;;15.20;99.90;;;;;;5093227;28;20471;-85
2023/09/24 08:25:22;;;;;;;0.60;0.60;;;14.90;99.90;;;;;;5093386;28;20483;-84
2023/09/24 08:27:49;;;;;;;0.70;0.70;;;15.10;99.90;;;;;;5093522;28;20448;-84
2023/09/24 08:30:16;;;;;;;2.17;0.80;;;15.20;99.90;;;;;;5093139;28;20956;-84
2023/09/24 08:32:42;;;;;;;0.60;0.60;;;15.20;99.90;;;;;;5093439;28;20980;-84
2023/09/24 08:35:11;;;;;;;0.57;0.57;;;15.30;99.90;;;;;;5093366;28;20493;-84
2023/09/24 08:37:38;;;;;;;0.60;0.50;;;15.40;99.90;;;;;;5093385;28;20448;-84
2023/09/24 08:40:06;;;;;;;1.90;0.50;;;15.60;99.90;;;;;;5093517;28;20436;-85
2023/09/24 08:42:33;;;;;;;0.57;0.57;;;15.80;99.90;;;;;;5092968;28;20574;-84
2023/09/24 08:45:10;;;;;;;1.03;0.57;;;15.90;99.90;;;;;;5093461;28;20551;-86
2023/09/24 08:47:39;;;;;;;0.50;0.43;;;16.00;99.90;;;;;;5093996;28;20423;-85
2023/09/24 08:50:07;;;;;;;0.90;0.70;;;16.20;99.90;;;;;;5093429;28;20821;-86
2023/09/24 08:52:38;;;;;;;0.70;0.70;;;16.40;99.90;;;;;;5093181;28;20466;-85
2023/09/24 08:55:06;;;;;;;1.27;0.93;;;16.50;99.90;;;;;;5093142;28;20935;-85
2023/09/24 08:57:33;;;;;;;9.60;0.67;;;16.60;99.90;;;;;;5093587;28;20448;-85
2023/09/24 09:00:00;;;;;;;2.93;0.60;;;16.80;99.90;;;;;;5094203;28;20428;-85
2023/09/24 09:02:27;;;;;;;0.97;0.50;;;17.10;99.90;;;;;;5098385;28;20471;-85
2023/09/24 09:04:55;;;;;;;0.50;0.50;;;17.20;99.90;;;;;;5099837;28;20428;-85
2023/09/24 09:07:22;;;;;;;0.57;0.57;;;17.50;99.90;;;;;;5097239;28;20937;-85
2023/09/24 09:09:59;;;;;;;3.03;0.57;;;17.50;99.90;;;;;;5097294;28;20817;-85
2023/09/24 09:12:26;;;;;;;0.60;0.50;;;17.70;99.90;;;;;;5097246;28;20550;-85
2023/09/24 09:14:55;;;;;;;2.60;0.47;;;18.10;99.90;;;;;;5097761;28;20439;-86
2023/09/24 09:17:22;;;;;;;1.10;0.80;;;18.20;99.90;;;;;;5097837;28;20959;-85
2023/09/24 09:19:53;;;;;;;0.90;0.90;;;18.40;99.90;;;;;;5097161;28;20443;-85
2023/09/24 09:22:22;;;;;;;1.27;0.50;;;18.40;99.90;;;;;;5097206;28;20904;-85
2023/09/24 09:25:01;;;;;;;0.80;0.60;;;18.30;99.90;;;;;;5097012;28;20452;-86
2023/09/24 09:27:33;;;;;;;1.43;0.40;;;18.30;99.90;;;;;;5097473;28;20422;-85
2023/09/24 09:30:12;;;;;;;1.07;0.50;;;18.50;99.90;;;;;;5098013;28;20429;-86
2023/09/24 09:32:39;;;;;;;1.00;0.60;;;18.50;99.90;;;;;;5096843;28;20471;-85
2023/09/24 09:35:06;;;;;;;2.13;0.80;;;18.70;99.90;;;;;;5097067;28;20492;-85
2023/09/24 09:37:33;;;;;;;0.50;0.50;;;18.90;99.90;;;;;;5097465;28;20431;-85
2023/09/24 09:40:00;;;;;;;1.00;0.53;;;19.20;99.90;;;;;;5097386;28;20447;-85
2023/09/24 09:42:33;;;;;;;0.60;0.60;;;19.60;99.90;;;;;;5096216;28;20475;-86
2023/09/24 09:45:03;;;;;;;1.43;0.60;;;19.70;99.90;;;;;;5097338;28;20481;-86
2023/09/24 09:47:34;;;;;;;1.00;0.60;;;19.90;99.90;;;;;;5097845;28;20436;-85
2023/09/24 09:50:01;;;;;;;0.47;0.47;;;19.30;99.90;;;;;;5097840;28;20439;-85
2023/09/24 09:52:34;;;;;;;0.60;0.40;;;19.00;99.90;;;;;;5096442;28;20463;-85
2023/09/24 09:55:04;;;;;;;1.83;0.60;;;18.90;99.90;;;;;;5097008;28;20429;-85
2023/09/24 09:57:33;;;;;;;0.43;0.43;;;18.90;99.90;;;;;;5097838;28;20774;-87
2023/09/24 10:00:00;;;;;;;0.80;0.60;;;18.90;99.90;;;;;;5096670;28;20444;-85
2023/09/24 10:02:28;;;;;;;0.50;0.50;;;19.00;99.90;;;;;;5095890;28;20998;-84
2023/09/24 10:04:57;;;;;;;0.60;0.60;;;18.90;99.90;;;;;;5097040;28;20936;-86
2023/09/24 10:07:25;;;;;;;2.80;0.53;;;19.00;99.90;;;;;;5096831;28;20464;-86
2023/09/24 10:09:52;;;;;;;0.50;0.50;;;19.10;99.90;;;;;;5096527;28;20951;-87
2023/09/24 10:12:35;;;;;;;1.33;0.50;;;19.10;99.90;;;;;;5097113;28;20448;-86
2023/09/24 10:15:26;;;;;;;0.50;0.40;;;19.10;99.90;;;;;;5096513;28;20931;-86
2023/09/24 10:18:23;;;;;;;0.70;0.70;;;19.30;99.90;;;;;;5096018;28;20893;-85
2023/09/24 10:21:06;;;;;;;0.97;0.70;;;19.40;99.90;;;;;;5096031;28;20447;-85
2023/09/24 10:23:34;;;;;;;1.23;0.70;;;19.50;99.90;;;;;;5096191;28;20444;-85
2023/09/24 10:26:05;;;;;;;0.40;0.40;;;19.70;99.90;;;;;;5096570;28;20610;-86
2023/09/24 10:28:51;;;;;;;0.97;0.50;;;19.70;99.90;;;;;;5096036;28;20978;-85
2023/09/24 10:31:20;;;;;;;0.67;0.67;;;19.70;99.90;;;;;;5096308;28;20919;-86
2023/09/24 10:33:58;;;;;;;0.83;0.70;;;20.00;99.90;;;;;;5095727;28;20486;-85
2023/09/24 10:36:29;;;;;;;1.93;0.50;;;20.50;99.90;;;;;;5096057;28;20497;-87
2023/09/24 10:39:04;;;;;;;1.13;0.60;;;20.90;99.90;;;;;;5095846;28;20424;-85
2023/09/24 10:41:31;;;;;;;0.93;0.50;;;20.90;99.90;;;;;;5095191;28;20483;-86
2023/09/24 10:44:25;;;;;;;1.07;0.60;;;21.00;99.90;;;;;;5095731;28;20535;-86
2023/09/24 10:46:52;;;;;;;0.43;0.40;;;20.80;99.90;;;;;;5095484;28;20487;-85
2023/09/24 10:49:21;;;;;;;0.80;0.70;;;20.90;99.90;;;;;;5095602;28;20450;-85
2023/09/24 10:51:48;;;;;;;0.70;0.50;;;21.10;99.90;;;;;;5097078;28;20471;-86
2023/09/24 10:54:16;;;;;;;0.70;0.70;;;20.90;99.90;;;;;;5096805;28;20444;-87
2023/09/24 10:56:47;;;;;;;1.70;0.57;;;20.60;99.90;;;;;;5097052;28;20503;-86
2023/09/24 10:59:13;;;;;;;1.63;0.70;;;20.30;99.90;;;;;;5096321;28;20944;-86
2023/09/24 11:01:41;;;;;;;2.73;0.87;;;20.00;99.90;;;;;;5096061;28;20476;-86
2023/09/24 11:04:09;;;;;;;0.50;0.50;;;19.80;99.90;;;;;;5096879;28;20456;-84
2023/09/24 11:06:36;;;;;;;0.60;0.50;;;19.60;99.90;;;;;;5096568;28;20475;-86
2023/09/24 11:09:17;;;;;;;0.53;0.50;;;19.40;99.90;;;;;;5096432;28;20438;-86
2023/09/24 11:11:44;;;;;;;0.87;0.50;;;19.30;99.90;;;;;;5095868;28;20829;-84
2023/09/24 11:14:16;;;;;;;0.80;0.60;;;19.20;99.90;;;;;;5095017;28;20435;-85
2023/09/24 11:16:44;;;;;;;4.10;0.50;;;19.10;99.90;;;;;;5095293;28;20435;-86
2023/09/24 11:19:11;;;;;;;0.50;0.43;;;19.10;99.90;;;;;;5096596;28;20809;-86
2023/09/24 11:21:38;;;;;;;0.60;0.60;;;19.20;99.90;;;;;;5095622;28;20458;-86
2023/09/24 11:24:20;;;;;;;1.27;0.70;;;19.40;99.90;;;;;;5094367;28;20452;-85
2023/09/24 11:26:47;;;;;;;0.40;0.40;;;19.00;99.90;;;;;;5071848;28;20482;-86
2023/09/24 11:29:14;;;;;;;1.27;0.60;;;18.80;99.90;;;;;;5095171;28;20783;-86
2023/09/24 11:31:46;;;;;;;0.43;0.40;;;18.70;99.90;;;;;;5095590;28;20471;-86
2023/09/24 11:34:22;;;;;;;0.40;0.40;;;18.80;99.90;;;;;;5079412;28;20452;-83
2023/09/24 11:36:54;;;;;;;1.47;0.50;;;18.80;99.90;;;;;;5074711;28;20421;-84
2023/09/24 11:39:21;;;;;;;1.23;0.60;;;18.80;99.90;;;;;;5076492;28;20464;-88
2023/09/24 11:41:48;;;;;;;4.40;0.80;;;18.80;99.90;;;;;;5075393;28;20484;-87
2023/09/24 11:44:16;;;;;;;2.30;0.60;;;18.70;99.90;;;;;;5075634;28;20455;-85
2023/09/24 11:46:46;;;;;;;2.70;0.50;;;18.70;99.90;;;;;;5074220;28;20991;-86
2023/09/24 11:49:13;;;;;;;0.80;0.43;;;18.50;99.90;;;;;;5075595;28;20527;-87
2023/09/24 11:51:39;;;;;;;3.10;0.67;;;18.50;99.90;;;;;;5075347;28;20471;-86
2023/09/24 11:54:06;;;;;;;0.50;0.50;;;18.60;99.90;;;;;;5083895;28;20428;-85
2023/09/24 11:56:33;;;;;;;3.80;0.50;;;18.50;99.90;;;;;;5075626;28;20493;-86
2023/09/24 11:59:00;;;;;;;0.50;0.47;;;18.60;99.90;;;;;;5074611;28;20445;-85
2023/09/24 12:01:27;;;;;;;0.70;0.40;;;18.30;99.90;;;;;;5074193;28;21035;-85
2023/09/24 12:03:56;;;;;;;0.60;0.40;;;18.30;99.90;;;;;;5074374;28;20448;-85
2023/09/24 12:06:23;;;;;;;1.57;0.90;;;18.10;99.90;;;;;;5073957;28;20988;-85
2023/09/24 12:08:50;;;;;;;2.10;0.77;;;18.00;99.90;;;;;;5073963;28;20455;-85
2023/09/24 12:11:16;;;;;;;0.70;0.53;;;18.00;99.90;;;;;;5073571;28;20444;-86
2023/09/24 12:13:43;;;;;;;1.03;0.90;;;17.90;99.90;;;;;;5074574;28;20434;-86
2023/09/24 12:16:10;;;;;;;0.60;0.60;;;17.90;99.90;;;;;;5074337;28;20448;-85
2023/09/24 12:18:36;;;;;;;2.50;0.70;;;17.90;99.90;;;;;;5074978;28;20456;-87
2023/09/24 12:21:05;;;;;;;0.40;0.40;;;18.00;99.90;;;;;;5075335;28;20823;-86
2023/09/24 12:23:31;;;;;;;1.30;0.40;;;18.10;99.90;;;;;;5075491;28;20822;-87
2023/09/24 12:25:58;;;;;;;0.50;0.47;;;18.10;99.90;;;;;;5075853;28;20440;-86
2023/09/24 12:28:27;;;;;;;0.97;0.70;;;18.10;99.90;;;;;;5074974;28;20453;-85
2023/09/24 12:30:54;;;;;;;0.60;0.60;;;18.10;99.90;;;;;;5073879;28;20507;-85
2023/09/24 12:33:21;;;;;;;0.57;0.57;;;17.90;99.90;;;;;;5073833;28;20487;-85
2023/09/24 12:35:49;;;;;;;0.57;0.40;;;17.70;99.90;;;;;;5078013;28;20501;-84
2023/09/24 12:38:17;;;;;;;0.80;0.67;;;17.70;99.90;;;;;;5098564;28;20463;-85
2023/09/24 12:40:44;;;;;;;0.70;0.70;;;17.90;99.90;;;;;;5098534;28;20456;-86
2023/09/24 12:43:11;;;;;;;0.63;0.50;;;17.60;99.90;;;;;;5098479;28;20474;-86
2023/09/24 12:45:37;;;;;;;0.60;0.50;;;17.90;99.90;;;;;;5098899;28;20451;-85
2023/09/24 12:48:05;;;;;;;0.63;0.50;;;17.60;99.90;;;;;;5099035;28;20987;-85
2023/09/24 12:50:34;;;;;;;0.87;0.60;;;17.50;99.90;;;;;;5099015;28;20456;-86
2023/09/24 12:53:01;;;;;;;0.70;0.40;;;17.60;99.90;;;;;;5098692;28;20472;-86